Time;durP1;ratioP1;P1;durP2;ratioP2;P2;SDS_P1;SDS_P2;PMS_P1;PMS_P2;Temp;Humidity;BMP_temperature;BMP_pressure;BME280_temperature;BME280_humidity;BME280_pressure;Samples;Min_cycle;Max_cycle;Signal;HPM_P1;HPM_P2
2022/10/11 00:02:16;;;;;;;1.45;0.20;;;8.00;99.90;;;;;;5018814;28;20494;-73
2022/10/11 00:04:42;;;;;;;0.20;0.10;;;8.00;99.90;;;;;;5013763;28;20679;-73
2022/10/11 00:07:08;;;;;;;2.08;0.25;;;7.90;99.90;;;;;;5016244;28;20475;-73
2022/10/11 00:09:34;;;;;;;2.05;0.15;;;7.90;99.90;;;;;;5022138;28;20069;-73
2022/10/11 00:11:59;;;;;;;0.95;0.30;;;7.90;99.90;;;;;;5017226;28;20053;-73
2022/10/11 00:14:26;;;;;;;2.47;0.68;;;7.90;99.90;;;;;;5016653;28;20033;-73
2022/10/11 00:16:52;;;;;;;1.13;0.50;;;7.90;99.90;;;;;;5016190;28;20534;-73
2022/10/11 00:19:18;;;;;;;4.00;0.55;;;7.90;99.90;;;;;;5013116;28;20048;-73
2022/10/11 00:21:44;;;;;;;1.90;0.70;;;7.80;99.90;;;;;;5018022;28;20033;-73
2022/10/11 00:24:11;;;;;;;3.58;0.80;;;7.80;99.90;;;;;;5016032;28;20030;-73
2022/10/11 00:26:37;;;;;;;2.15;0.70;;;7.80;99.90;;;;;;5014039;28;20515;-73
2022/10/11 00:29:02;;;;;;;1.50;0.55;;;7.90;99.90;;;;;;5015167;28;20041;-73
2022/10/11 00:31:28;;;;;;;3.15;0.70;;;7.90;99.90;;;;;;5017939;28;20440;-73
2022/10/11 00:33:54;;;;;;;1.85;0.38;;;7.80;99.90;;;;;;5002199;28;20106;-73
2022/10/11 00:36:21;;;;;;;3.25;0.55;;;7.90;99.90;;;;;;5033296;28;20099;-73
2022/10/11 00:38:46;;;;;;;1.17;0.47;;;7.90;99.90;;;;;;5018906;28;20128;-73
2022/10/11 00:41:13;;;;;;;0.93;0.43;;;7.80;99.90;;;;;;5018362;28;20121;-73
2022/10/11 00:43:40;;;;;;;2.90;0.60;;;7.80;99.90;;;;;;5015476;28;20037;-73
2022/10/11 00:46:05;;;;;;;1.23;0.50;;;7.80;99.90;;;;;;5016070;28;20048;-73
2022/10/11 00:48:45;;;;;;;1.05;0.45;;;7.80;99.90;;;;;;4996620;28;21339;-73
2022/10/11 00:51:30;;;;;;;2.00;0.35;;;7.80;99.90;;;;;;5013200;28;20037;-73
2022/10/11 00:53:59;;;;;;;0.55;0.22;;;7.80;99.90;;;;;;5009230;28;20041;-73
2022/10/11 00:56:35;;;;;;;1.52;0.30;;;7.80;99.90;;;;;;5019349;28;20037;-73
2022/10/11 00:59:02;;;;;;;;;;;7.80;99.90;;;;;;5017864;28;20742;-73
2022/10/11 01:01:28;;;;;;;0.65;0.20;;;7.70;99.90;;;;;;5016816;28;19916;-73
2022/10/11 01:03:54;;;;;;;0.47;0.38;;;7.70;99.90;;;;;;5015881;28;20053;-73
2022/10/11 01:06:19;;;;;;;0.38;0.20;;;7.70;99.90;;;;;;5014043;28;20041;-73
2022/10/11 01:08:45;;;;;;;0.28;0.10;;;7.70;99.90;;;;;;5015560;28;20068;-73
2022/10/11 01:11:14;;;;;;;0.50;0.10;;;7.70;99.90;;;;;;5016961;28;20034;-73
2022/10/11 01:14:03;;;;;;;4.07;0.40;;;7.70;99.90;;;;;;5017198;28;20104;-73
2022/10/11 01:16:36;;;;;;;0.63;0.20;;;7.70;99.90;;;;;;5018324;28;20294;-73
2022/10/11 01:19:39;;;;;;;3.85;0.60;;;7.60;99.90;;;;;;5016451;28;20048;-73
2022/10/11 01:22:45;;;;;;;0.17;0.10;;;7.60;99.90;;;;;;5036956;28;20034;-73
2022/10/11 01:25:38;;;;;;;1.50;0.50;;;7.60;99.90;;;;;;5022257;28;20404;-73
2022/10/11 01:28:19;;;;;;;1.42;0.50;;;7.60;99.90;;;;;;5011174;28;20083;-73
2022/10/11 01:30:45;;;;;;;0.98;0.38;;;7.50;99.90;;;;;;5020023;28;20038;-73
2022/10/11 01:33:42;;;;;;;0.40;0.30;;;7.50;99.90;;;;;;5016888;28;20037;-73
2022/10/11 01:36:37;;;;;;;0.63;0.30;;;7.50;99.90;;;;;;5016854;28;20399;-73
2022/10/11 01:39:18;;;;;;;0.73;0.40;;;7.50;99.90;;;;;;5017714;28;20163;-73
2022/10/11 01:41:50;;;;;;;3.35;0.35;;;7.40;99.90;;;;;;5012853;28;20037;-73
2022/10/11 01:44:17;;;;;;;5.90;0.75;;;7.50;99.90;;;;;;5004635;28;20046;-73
2022/10/11 01:46:42;;;;;;;2.03;0.30;;;7.50;99.90;;;;;;5019845;28;20041;-73
2022/10/11 01:49:08;;;;;;;0.85;0.30;;;7.50;99.90;;;;;;5024036;28;20037;-73
2022/10/11 01:51:42;;;;;;;4.18;0.65;;;7.50;99.90;;;;;;5017878;28;20041;-73
2022/10/11 01:54:46;;;;;;;0.73;0.30;;;7.50;99.90;;;;;;5003946;28;20037;-73
2022/10/11 01:57:37;;;;;;;1.88;0.50;;;7.50;99.90;;;;;;4991378;28;20050;-73
2022/10/11 02:00:22;;;;;;;0.75;0.10;;;7.50;99.90;;;;;;5003493;28;20037;-73
2022/10/11 02:03:00;;;;;;;0.52;0.40;;;7.50;99.90;;;;;;5018825;28;20496;-73
2022/10/11 02:05:47;;;;;;;5.00;0.55;;;7.50;99.90;;;;;;5017940;28;20124;-73
2022/10/11 02:08:47;;;;;;;1.08;0.47;;;7.50;99.90;;;;;;5019371;28;20544;-73
2022/10/11 02:11:29;;;;;;;2.20;0.20;;;7.40;99.90;;;;;;4997700;28;20067;-73
2022/10/11 02:14:02;;;;;;;1.65;0.43;;;7.40;99.90;;;;;;5019820;28;20054;-73
2022/10/11 02:16:37;;;;;;;1.67;0.65;;;7.40;99.90;;;;;;5039620;28;20133;-73
2022/10/11 02:19:06;;;;;;;6.75;0.20;;;7.40;99.90;;;;;;5016255;28;20045;-73
2022/10/11 02:21:35;;;;;;;2.13;0.60;;;7.40;99.90;;;;;;5021140;28;20041;-73
2022/10/11 02:24:12;;;;;;;0.20;0.20;;;7.30;99.90;;;;;;5014503;28;20091;-73
2022/10/11 02:26:41;;;;;;;3.83;0.38;;;7.30;99.90;;;;;;5005637;28;20061;-73
2022/10/11 02:29:10;;;;;;;0.32;0.30;;;7.30;99.90;;;;;;5012760;28;20395;-73
2022/10/11 02:31:36;;;;;;;1.63;0.50;;;7.30;99.90;;;;;;5016036;28;20129;-73
2022/10/11 02:34:21;;;;;;;1.55;0.30;;;7.30;99.90;;;;;;5003726;28;20033;-73
2022/10/11 02:36:58;;;;;;;0.45;0.20;;;7.30;99.90;;;;;;5018300;28;20127;-73
2022/10/11 02:39:39;;;;;;;1.00;0.20;;;7.30;99.90;;;;;;5018409;28;20506;-73
2022/10/11 02:42:12;;;;;;;0.10;0.10;;;7.20;99.90;;;;;;5016219;28;20030;-73
2022/10/11 02:44:58;;;;;;;0.38;0.10;;;7.20;99.90;;;;;;5018361;28;20045;-73
2022/10/11 02:47:25;;;;;;;1.58;0.40;;;7.20;99.90;;;;;;5034667;28;20489;-73
2022/10/11 02:49:50;;;;;;;6.45;0.82;;;7.20;99.90;;;;;;5020208;28;20067;-73
2022/10/11 02:52:16;;;;;;;4.28;0.50;;;7.20;99.90;;;;;;5021831;28;20041;-73
2022/10/11 02:54:41;;;;;;;1.15;0.20;;;7.20;99.90;;;;;;5012280;28;20041;-73
2022/10/11 02:57:07;;;;;;;0.77;0.13;;;7.10;99.90;;;;;;5017113;28;20049;-73
2022/10/11 02:59:33;;;;;;;1.17;0.50;;;7.00;99.90;;;;;;5017047;28;20478;-73
2022/10/11 03:01:58;;;;;;;1.10;0.40;;;7.00;99.90;;;;;;5019575;28;20099;-73
2022/10/11 03:04:24;;;;;;;1.60;0.52;;;7.10;99.90;;;;;;5016796;28;20033;-73
2022/10/11 03:06:50;;;;;;;6.20;0.70;;;7.20;99.90;;;;;;5016302;28;20624;-73
2022/10/11 03:09:15;;;;;;;0.38;0.30;;;7.20;99.90;;;;;;5015759;28;20049;-73
2022/10/11 03:11:41;;;;;;;0.30;0.20;;;7.10;99.90;;;;;;5018302;28;20041;-73
2022/10/11 03:14:06;;;;;;;1.10;0.43;;;7.10;99.90;;;;;;5002078;28;20450;-73
2022/10/11 03:16:32;;;;;;;2.45;0.60;;;7.10;99.90;;;;;;5018825;28;20434;-73
2022/10/11 03:18:57;;;;;;;3.30;0.55;;;7.20;99.90;;;;;;5018370;28;20041;-73
2022/10/11 03:21:24;;;;;;;1.42;0.60;;;7.20;99.90;;;;;;5017217;28;20052;-73
2022/10/11 03:23:49;;;;;;;1.70;0.28;;;7.20;99.90;;;;;;5011836;28;20076;-73
2022/10/11 03:26:15;;;;;;;3.55;0.50;;;7.20;99.90;;;;;;5015649;28;20063;-73
2022/10/11 03:28:41;;;;;;;1.17;0.30;;;7.10;99.90;;;;;;5017829;28;20125;-73
2022/10/11 03:31:06;;;;;;;1.58;0.35;;;7.20;99.90;;;;;;5019090;28;20049;-73
2022/10/11 03:33:32;;;;;;;1.50;0.65;;;7.10;99.90;;;;;;5014602;28;20042;-73
2022/10/11 03:35:57;;;;;;;0.63;0.20;;;7.10;99.90;;;;;;5020762;28;20121;-73
2022/10/11 03:38:23;;;;;;;2.45;0.35;;;7.10;99.90;;;;;;5015854;28;20498;-73
2022/10/11 03:40:49;;;;;;;2.95;0.43;;;7.10;99.90;;;;;;5015784;28;20044;-73
2022/10/11 03:43:15;;;;;;;1.10;0.20;;;7.10;99.90;;;;;;5015187;28;20570;-73
2022/10/11 03:45:43;;;;;;;0.30;0.20;;;7.10;99.90;;;;;;5018998;28;20076;-73
2022/10/11 03:48:10;;;;;;;1.65;0.10;;;7.00;99.90;;;;;;4996907;28;20052;-73
2022/10/11 03:50:36;;;;;;;0.32;0.10;;;7.00;99.90;;;;;;5018472;28;20034;-73
2022/10/11 03:53:03;;;;;;;0.20;0.20;;;7.00;99.90;;;;;;5004229;28;20047;-73
2022/10/11 03:55:29;;;;;;;2.53;0.32;;;6.90;99.90;;;;;;5037336;28;20037;-73
2022/10/11 03:57:54;;;;;;;0.32;0.13;;;6.90;99.90;;;;;;5015588;28;20054;-73
2022/10/11 04:00:20;;;;;;;0.45;0.20;;;6.90;99.90;;;;;;5017902;28;20519;-73
2022/10/11 04:02:45;;;;;;;0.30;0.20;;;6.90;99.90;;;;;;5013731;28;20491;-73
2022/10/11 04:05:11;;;;;;;0.65;0.20;;;6.90;99.90;;;;;;5016849;28;20102;-73
2022/10/11 04:07:37;;;;;;;1.55;0.28;;;6.80;99.90;;;;;;5015341;28;20045;-73
2022/10/11 04:10:04;;;;;;;0.75;0.20;;;6.80;99.90;;;;;;5020904;28;20438;-73
2022/10/11 04:12:29;;;;;;;0.43;0.20;;;6.80;99.90;;;;;;5015738;28;20033;-73
2022/10/11 04:14:55;;;;;;;2.40;0.40;;;6.80;99.90;;;;;;5016763;28;20029;-73
2022/10/11 04:17:20;;;;;;;2.03;0.70;;;6.80;99.90;;;;;;5017742;28;20041;-73
2022/10/11 04:19:46;;;;;;;4.10;0.43;;;6.80;99.90;;;;;;5017756;28;20158;-73
2022/10/11 04:22:12;;;;;;;1.35;0.57;;;6.80;99.90;;;;;;5010895;28;20034;-73
2022/10/11 04:24:37;;;;;;;1.73;0.32;;;6.80;99.90;;;;;;5018473;28;20045;-73
2022/10/11 04:27:03;;;;;;;0.85;0.22;;;6.80;99.90;;;;;;5015821;28;20648;-73
2022/10/11 04:29:28;;;;;;;0.80;0.20;;;6.90;99.90;;;;;;5016662;28;20053;-73
2022/10/11 04:31:54;;;;;;;1.08;0.17;;;6.90;99.90;;;;;;5016129;28;20034;-73
2022/10/11 04:34:20;;;;;;;0.80;0.32;;;6.90;99.90;;;;;;5017279;28;20045;-73
2022/10/11 04:36:45;;;;;;;0.98;0.30;;;6.90;99.90;;;;;;5011429;28;20056;-73
2022/10/11 04:39:11;;;;;;;0.25;0.17;;;6.90;99.90;;;;;;5018168;28;20037;-73
2022/10/11 04:41:37;;;;;;;4.43;0.28;;;6.90;99.90;;;;;;5010033;28;20045;-73
2022/10/11 04:44:03;;;;;;;0.15;0.10;;;6.90;99.90;;;;;;5013791;28;20395;-73
2022/10/11 04:46:29;;;;;;;1.33;0.30;;;6.90;99.90;;;;;;5017353;28;20032;-73
2022/10/11 04:48:54;;;;;;;0.43;0.10;;;7.00;99.90;;;;;;5013010;28;20115;-73
2022/10/11 04:51:21;;;;;;;1.77;0.38;;;7.00;99.90;;;;;;5015229;28;20045;-73
2022/10/11 04:53:48;;;;;;;1.67;0.40;;;7.00;99.90;;;;;;5013198;28;21421;-73
2022/10/11 04:56:16;;;;;;;0.70;0.32;;;7.00;99.90;;;;;;5011994;28;20046;-73
2022/10/11 04:58:43;;;;;;;1.23;0.32;;;7.00;99.90;;;;;;5007169;28;20038;-73
2022/10/11 05:01:10;;;;;;;1.55;0.50;;;7.00;99.90;;;;;;5016940;28;20486;-73
2022/10/11 05:03:36;;;;;;;0.93;0.17;;;7.00;99.90;;;;;;5016845;28;20132;-73
2022/10/11 05:06:03;;;;;;;4.75;0.90;;;7.00;99.90;;;;;;5015358;28;20040;-73
2022/10/11 05:08:29;;;;;;;2.63;0.52;;;7.00;99.90;;;;;;4998669;28;20049;-73
2022/10/11 05:11:04;;;;;;;3.88;0.47;;;7.00;99.90;;;;;;5028791;28;20072;-73
2022/10/11 05:13:30;;;;;;;0.67;0.33;;;7.00;99.90;;;;;;5008293;28;20604;-73
2022/10/11 05:15:56;;;;;;;1.33;0.45;;;7.00;99.90;;;;;;5001494;28;20800;-73
2022/10/11 05:18:23;;;;;;;1.27;0.22;;;7.00;99.90;;;;;;5013805;28;20051;-73
2022/10/11 05:20:48;;;;;;;7.65;0.40;;;7.00;99.90;;;;;;5015029;28;20171;-73
2022/10/11 05:23:14;;;;;;;0.63;0.43;;;7.00;99.90;;;;;;5000038;28;20045;-73
2022/10/11 05:25:40;;;;;;;1.65;0.73;;;7.10;99.90;;;;;;5014149;28;20026;-73
2022/10/11 05:28:06;;;;;;;5.15;0.68;;;7.00;99.90;;;;;;5014563;28;20108;-73
2022/10/11 05:30:31;;;;;;;3.33;0.60;;;7.00;99.90;;;;;;5012387;28;20598;-73
2022/10/11 05:32:57;;;;;;;1.70;0.32;;;7.00;99.90;;;;;;5020219;28;20045;-73
2022/10/11 05:35:23;;;;;;;3.10;0.50;;;7.00;99.90;;;;;;5021972;28;20120;-72
2022/10/11 05:37:48;;;;;;;2.13;0.20;;;7.00;99.90;;;;;;5021246;28;20396;-73
2022/10/11 05:40:14;;;;;;;1.52;0.28;;;7.00;99.90;;;;;;5001841;28;20033;-73
2022/10/11 05:42:40;;;;;;;1.40;0.47;;;7.10;99.90;;;;;;5000594;28;20037;-72
2022/10/11 05:45:06;;;;;;;3.92;0.45;;;7.00;99.90;;;;;;5029361;28;20474;-72
2022/10/11 05:47:32;;;;;;;1.13;0.43;;;7.00;99.90;;;;;;5018599;28;20034;-73
2022/10/11 05:49:57;;;;;;;2.40;0.20;;;7.10;99.90;;;;;;4996084;28;20033;-73
2022/10/11 05:52:23;;;;;;;1.45;0.80;;;7.10;99.90;;;;;;5013220;28;20030;-72
2022/10/11 05:54:49;;;;;;;1.27;0.65;;;7.20;99.90;;;;;;5014824;28;20590;-73
2022/10/11 05:57:15;;;;;;;0.73;0.30;;;7.20;99.90;;;;;;5014460;28;20033;-73
2022/10/11 05:59:41;;;;;;;0.70;0.40;;;7.30;99.90;;;;;;5012333;28;20154;-72
2022/10/11 06:02:10;;;;;;;0.80;0.35;;;7.30;99.90;;;;;;5018254;28;20077;-72
2022/10/11 06:04:36;;;;;;;5.10;0.45;;;7.30;99.90;;;;;;5020948;28;20041;-72
2022/10/11 06:07:02;;;;;;;0.57;0.50;;;7.40;99.90;;;;;;5024651;28;20091;-72
2022/10/11 06:09:28;;;;;;;3.05;0.63;;;7.40;99.90;;;;;;5021935;28;20064;-73
2022/10/11 06:11:54;;;;;;;3.80;0.40;;;7.40;99.90;;;;;;5024883;28;20510;-73
2022/10/11 06:14:19;;;;;;;11.30;0.90;;;7.40;99.90;;;;;;5024925;28;20038;-72
2022/10/11 06:16:45;;;;;;;1.27;0.43;;;7.50;99.90;;;;;;5026849;28;20562;-73
2022/10/11 06:19:11;;;;;;;0.55;0.15;;;7.50;99.90;;;;;;5023328;28;20121;-73
2022/10/11 06:21:37;;;;;;;0.88;0.32;;;7.50;99.90;;;;;;5008483;28;20025;-73
2022/10/11 06:24:03;;;;;;;1.23;0.60;;;7.50;99.90;;;;;;5025483;28;20033;-71
2022/10/11 06:26:29;;;;;;;0.47;0.40;;;7.50;99.90;;;;;;5002451;28;20088;-72
2022/10/11 06:28:55;;;;;;;1.85;0.75;;;7.50;99.90;;;;;;5010716;28;20041;-72
2022/10/11 06:31:21;;;;;;;0.77;0.20;;;7.50;99.90;;;;;;5029710;28;20048;-71
2022/10/11 06:33:47;;;;;;;1.52;0.63;;;7.60;99.90;;;;;;5024736;28;20041;-73
2022/10/11 06:36:13;;;;;;;0.95;0.40;;;7.60;99.90;;;;;;5020038;28;20038;-72
2022/10/11 06:38:39;;;;;;;2.58;0.93;;;7.60;99.90;;;;;;5022403;28;20041;-72
2022/10/11 06:41:19;;;;;;;2.35;0.30;;;7.60;99.90;;;;;;5022841;28;20042;-72
2022/10/11 06:43:45;;;;;;;0.70;0.40;;;7.60;99.90;;;;;;5027719;28;20038;-72
2022/10/11 06:46:11;;;;;;;1.55;0.52;;;7.60;99.90;;;;;;5023766;28;20060;-72
2022/10/11 06:48:44;;;;;;;0.50;0.30;;;7.60;99.90;;;;;;5021906;28;20029;-72
2022/10/11 06:51:10;;;;;;;1.52;0.60;;;7.60;99.90;;;;;;5023346;28;20041;-72
2022/10/11 06:53:36;;;;;;;3.03;0.40;;;7.70;99.90;;;;;;5007557;28;20056;-73
2022/10/11 06:56:04;;;;;;;2.15;0.50;;;7.70;99.90;;;;;;5024211;28;20067;-73
2022/10/11 06:58:30;;;;;;;1.08;0.30;;;7.70;99.90;;;;;;5020756;28;20494;-73
2022/10/11 07:01:06;;;;;;;0.73;0.50;;;7.70;99.90;;;;;;5020914;28;20029;-72
2022/10/11 07:03:32;;;;;;;2.45;0.73;;;7.70;99.90;;;;;;4997567;28;20041;-72
2022/10/11 07:06:10;;;;;;;1.73;0.57;;;7.70;99.90;;;;;;5023062;28;20034;-73
2022/10/11 07:08:36;;;;;;;2.22;0.50;;;7.70;99.90;;;;;;5022073;28;20053;-73
2022/10/11 07:11:11;;;;;;;1.00;0.47;;;7.70;99.90;;;;;;5020873;28;20038;-72
2022/10/11 07:13:38;;;;;;;1.15;0.40;;;7.80;99.90;;;;;;5003384;28;20049;-72
2022/10/11 07:16:06;;;;;;;3.38;0.63;;;7.80;99.90;;;;;;5023322;28;20045;-72
2022/10/11 07:18:32;;;;;;;1.08;0.30;;;7.80;99.90;;;;;;5019970;28;20041;-72
2022/10/11 07:21:01;;;;;;;0.50;0.30;;;7.90;99.90;;;;;;5014435;28;20045;-72
2022/10/11 07:23:27;;;;;;;2.80;0.73;;;7.90;99.90;;;;;;5019428;28;20041;-72
2022/10/11 07:25:53;;;;;;;0.40;0.30;;;7.90;99.90;;;;;;5022852;28;20379;-72
2022/10/11 07:28:20;;;;;;;4.30;0.63;;;8.00;99.90;;;;;;5036786;28;20050;-73
2022/10/11 07:30:46;;;;;;;5.03;0.60;;;8.00;99.90;;;;;;4998096;28;20079;-73
2022/10/11 07:33:12;;;;;;;1.67;0.20;;;8.00;99.90;;;;;;5022163;28;20076;-72
2022/10/11 07:35:37;;;;;;;5.05;0.57;;;8.10;99.90;;;;;;5014292;28;20041;-72
2022/10/11 07:38:05;;;;;;;2.60;0.68;;;8.10;99.90;;;;;;5022251;28;20037;-73
2022/10/11 07:40:31;;;;;;;1.77;0.55;;;8.20;99.90;;;;;;5022706;28;20063;-72
2022/10/11 07:42:57;;;;;;;2.10;0.85;;;8.10;99.90;;;;;;5019322;28;20037;-72
2022/10/11 07:45:27;;;;;;;3.63;0.70;;;8.20;99.90;;;;;;5021699;28;20406;-72
2022/10/11 07:47:56;;;;;;;2.90;0.80;;;8.20;99.90;;;;;;5022754;28;20095;-73
2022/10/11 07:50:23;;;;;;;1.08;0.43;;;8.30;99.90;;;;;;5016042;28;20329;-73
2022/10/11 07:52:49;;;;;;;2.78;0.77;;;8.30;99.90;;;;;;5021557;28;20079;-72
2022/10/11 07:55:15;;;;;;;2.25;0.70;;;8.30;99.90;;;;;;5024714;28;20042;-72
2022/10/11 07:57:40;;;;;;;1.02;0.35;;;8.40;99.90;;;;;;5019737;28;20053;-72
2022/10/11 08:00:06;;;;;;;3.90;0.50;;;8.40;99.90;;;;;;5021524;28;20136;-72
2022/10/11 08:02:32;;;;;;;1.42;0.70;;;8.40;99.90;;;;;;5021837;28;20367;-72
2022/10/11 08:04:57;;;;;;;6.72;0.80;;;8.50;99.90;;;;;;5021657;28;20040;-73
2022/10/11 08:07:23;;;;;;;1.95;0.80;;;8.50;99.90;;;;;;5022135;28;20040;-73
2022/10/11 08:09:49;;;;;;;1.90;0.85;;;8.60;99.90;;;;;;5003960;28;20099;-72
2022/10/11 08:12:14;;;;;;;1.55;0.50;;;8.60;99.90;;;;;;5020393;28;20107;-72
2022/10/11 08:14:43;;;;;;;1.80;0.40;;;8.60;99.90;;;;;;5015524;28;20037;-72
2022/10/11 08:17:08;;;;;;;1.52;0.60;;;8.60;99.90;;;;;;5022660;28;20041;-72
2022/10/11 08:19:34;;;;;;;4.80;0.80;;;8.70;99.90;;;;;;5019474;28;20045;-72
2022/10/11 08:21:59;;;;;;;2.28;0.65;;;8.70;99.90;;;;;;5023255;28;20120;-72
2022/10/11 08:24:25;;;;;;;2.47;0.65;;;8.80;99.90;;;;;;4998986;28;20049;-72
2022/10/11 08:26:51;;;;;;;3.00;0.60;;;8.80;99.90;;;;;;4999358;28;20057;-72
2022/10/11 08:29:17;;;;;;;8.18;0.88;;;8.90;99.90;;;;;;4999477;28;20033;-71
2022/10/11 08:31:43;;;;;;;5.47;0.70;;;8.90;99.90;;;;;;5013736;28;20604;-72
2022/10/11 08:34:10;;;;;;;5.82;0.60;;;8.90;99.90;;;;;;5013022;28;20045;-72
2022/10/11 08:36:36;;;;;;;2.22;0.60;;;9.00;99.90;;;;;;5017771;28;20053;-72
2022/10/11 08:39:03;;;;;;;5.78;0.60;;;9.10;99.90;;;;;;5017269;28;20121;-72
2022/10/11 08:41:44;;;;;;;3.45;0.77;;;9.10;99.90;;;;;;5016146;28;20056;-72
2022/10/11 08:44:34;;;;;;;1.17;0.55;;;9.20;99.90;;;;;;5016213;28;20037;-71
2022/10/11 08:47:09;;;;;;;2.28;0.43;;;9.20;99.90;;;;;;5031820;28;20148;-72
2022/10/11 08:49:36;;;;;;;1.38;0.60;;;9.30;99.90;;;;;;5022630;28;20120;-72
2022/10/11 08:52:17;;;;;;;3.00;0.40;;;9.30;99.90;;;;;;5022192;28;20041;-72
2022/10/11 08:54:54;;;;;;;1.42;0.50;;;9.40;99.90;;;;;;5021988;28;20056;-72
2022/10/11 08:57:23;;;;;;;4.25;0.80;;;9.40;99.90;;;;;;5022663;28;20040;-72
2022/10/11 08:59:58;;;;;;;1.02;0.57;;;9.50;99.90;;;;;;5016006;28;20049;-72
2022/10/11 09:02:31;;;;;;;2.15;0.50;;;9.50;99.90;;;;;;5004883;28;20041;-72
2022/10/11 09:04:57;;;;;;;2.17;0.52;;;9.60;99.90;;;;;;5022311;28;20495;-72
2022/10/11 09:07:36;;;;;;;1.63;0.52;;;9.70;99.90;;;;;;5011367;28;20045;-72
2022/10/11 09:10:10;;;;;;;3.10;0.60;;;9.70;99.90;;;;;;5017341;28;20048;-72
2022/10/11 09:13:07;;;;;;;0.98;0.60;;;9.70;99.90;;;;;;5012226;28;20531;-69
2022/10/11 09:15:58;;;;;;;3.78;0.90;;;9.80;99.90;;;;;;5009335;28;20053;-72
2022/10/11 09:19:02;;;;;;;2.25;0.60;;;9.90;99.90;;;;;;5017429;28;20049;-72
2022/10/11 09:22:00;;;;;;;6.40;0.77;;;9.90;99.90;;;;;;5021486;28;20100;-72
2022/10/11 09:24:50;;;;;;;0.95;0.52;;;10.00;99.90;;;;;;5012795;28;20041;-72
2022/10/11 09:27:27;;;;;;;4.22;0.70;;;10.10;99.90;;;;;;5013043;28;20630;-72
2022/10/11 09:30:11;;;;;;;3.60;0.60;;;10.10;99.90;;;;;;5012757;28;20983;-72
2022/10/11 09:32:39;;;;;;;2.38;0.68;;;10.20;99.90;;;;;;5015880;28;20041;-72
2022/10/11 09:35:18;;;;;;;1.25;0.63;;;10.30;99.90;;;;;;4997468;28;20102;-72
2022/10/11 09:38:18;;;;;;;3.10;0.52;;;10.30;99.90;;;;;;4996166;28;20041;-72
2022/10/11 09:41:12;;;;;;;5.00;0.60;;;10.40;99.90;;;;;;4990781;28;20124;-72
2022/10/11 09:43:38;;;;;;;1.58;0.50;;;10.50;99.90;;;;;;4998391;28;20487;-72
2022/10/11 09:46:18;;;;;;;0.65;0.43;;;10.50;99.90;;;;;;5028473;28;20060;-72
2022/10/11 09:48:43;;;;;;;1.30;0.63;;;10.60;99.90;;;;;;5016302;28;20045;-71
2022/10/11 09:51:18;;;;;;;2.10;0.50;;;10.70;99.90;;;;;;5015916;28;20030;-71
2022/10/11 09:54:03;;;;;;;0.90;0.47;;;10.80;99.90;;;;;;5017391;28;20499;-72
2022/10/11 09:56:31;;;;;;;4.00;0.50;;;10.80;99.90;;;;;;5019251;28;20071;-71
2022/10/11 09:59:32;;;;;;;7.93;0.68;;;10.80;99.90;;;;;;5001805;28;20045;-71
2022/10/11 10:02:13;;;;;;;2.38;0.60;;;10.90;99.90;;;;;;5017453;28;20038;-73
2022/10/11 10:05:09;;;;;;;2.25;0.35;;;11.00;99.90;;;;;;5035066;28;20121;-72
2022/10/11 10:07:36;;;;;;;;;;;11.10;99.90;;;;;;5014458;28;20041;-74
2022/10/11 10:10:25;;;;;;;1.05;0.40;;;11.20;99.90;;;;;;5018763;28;19917;-71
2022/10/11 10:12:57;;;;;;;6.72;0.73;;;11.30;99.90;;;;;;5016850;28;20041;-71
2022/10/11 10:15:32;;;;;;;0.88;0.15;;;11.30;99.90;;;;;;5017445;28;20055;-71
2022/10/11 10:17:58;;;;;;;12.03;0.80;;;11.40;99.90;;;;;;5018503;28;20033;-72
2022/10/11 10:20:33;;;;;;;2.95;0.98;;;11.40;99.90;;;;;;5021061;28;20832;-72
2022/10/11 10:23:06;;;;;;;1.10;0.88;;;11.40;99.90;;;;;;5024426;28;20041;-71
2022/10/11 10:25:35;;;;;;;0.40;0.30;;;11.40;99.90;;;;;;5020674;28;20665;-72
2022/10/11 10:28:15;;;;;;;1.73;0.60;;;11.40;99.90;;;;;;5019161;28;20033;-72
2022/10/11 10:30:54;;;;;;;1.38;0.43;;;11.40;99.90;;;;;;5021355;28;20440;-72
2022/10/11 10:33:21;;;;;;;1.30;0.50;;;11.40;99.90;;;;;;5024938;28;20399;-71
2022/10/11 10:35:55;;;;;;;2.35;0.50;;;11.50;99.90;;;;;;5021360;28;20187;-72
2022/10/11 10:38:41;;;;;;;4.38;0.50;;;11.60;99.90;;;;;;5021182;28;20061;-71
2022/10/11 10:41:12;;;;;;;3.83;0.57;;;11.70;99.90;;;;;;5021769;28;20045;-72
2022/10/11 10:43:41;;;;;;;1.17;0.40;;;11.80;99.90;;;;;;5022741;28;20446;-72
2022/10/11 10:46:34;;;;;;;1.45;0.47;;;11.80;99.90;;;;;;5020008;28;20037;-71
2022/10/11 10:49:21;;;;;;;1.58;0.30;;;11.90;99.90;;;;;;5017076;28;20041;-72
2022/10/11 10:51:53;;;;;;;4.28;0.50;;;12.00;99.90;;;;;;5013563;28;20052;-71
2022/10/11 10:54:37;;;;;;;2.05;0.47;;;12.10;99.90;;;;;;5012865;28;20041;-72
2022/10/11 10:57:22;;;;;;;2.58;0.40;;;12.10;99.90;;;;;;4995248;28;20042;-72
2022/10/11 11:00:18;;;;;;;8.10;0.70;;;12.20;99.90;;;;;;4998365;28;20136;-71
2022/10/11 11:03:00;;;;;;;1.33;0.47;;;12.20;99.90;;;;;;5014405;28;20076;-71
2022/10/11 11:05:45;;;;;;;2.58;0.43;;;12.30;99.90;;;;;;5031605;28;20965;-71
2022/10/11 11:08:48;;;;;;;2.43;0.57;;;12.30;99.90;;;;;;5012050;28;20057;-71
2022/10/11 11:11:34;;;;;;;3.72;0.40;;;12.30;99.90;;;;;;5013988;28;20033;-72
2022/10/11 11:14:29;;;;;;;3.85;0.40;;;12.30;99.90;;;;;;5011098;28;20040;-71
2022/10/11 11:17:00;;;;;;;8.82;1.08;;;12.30;99.90;;;;;;5014972;28;20045;-72
2022/10/11 11:19:49;;;;;;;4.13;0.40;;;12.40;99.90;;;;;;5018361;28;20072;-71
2022/10/11 11:22:49;;;;;;;0.82;0.38;;;12.40;99.90;;;;;;5018468;28;20053;-71
2022/10/11 11:25:30;;;;;;;2.72;0.60;;;12.40;99.90;;;;;;5010469;28;20045;-72
2022/10/11 11:28:03;;;;;;;3.80;0.47;;;12.40;99.90;;;;;;5009741;28;20041;-72
2022/10/11 11:30:50;;;;;;;4.15;0.40;;;12.40;99.90;;;;;;5020132;28;20037;-72
2022/10/11 11:33:42;;;;;;;3.55;0.30;;;12.40;99.90;;;;;;5017683;28;20485;-72
2022/10/11 11:36:19;;;;;;;3.65;1.15;;;12.40;99.90;;;;;;5004000;28;20072;-72
2022/10/11 11:39:11;;;;;;;1.35;0.30;;;12.40;99.90;;;;;;5018950;28;20053;-72
2022/10/11 11:41:45;;;;;;;3.05;0.50;;;12.40;99.90;;;;;;5016753;28;20056;-72
2022/10/11 11:44:16;;;;;;;0.30;0.30;;;12.40;99.90;;;;;;5009875;28;20060;-72
2022/10/11 11:46:53;;;;;;;3.03;0.40;;;12.40;99.90;;;;;;5015078;28;20041;-72
2022/10/11 11:49:34;;;;;;;5.28;0.40;;;12.40;99.90;;;;;;5015953;28;20049;-72
2022/10/11 11:52:02;;;;;;;2.92;0.43;;;12.50;99.90;;;;;;5011892;28;20807;-72
2022/10/11 11:55:14;;;;;;;2.67;0.80;;;12.70;99.90;;;;;;5014616;28;20046;-73
2022/10/11 11:58:17;;;;;;;6.10;0.43;;;12.90;99.90;;;;;;4988738;28;20049;-72
2022/10/11 12:01:23;;;;;;;0.40;0.20;;;12.80;99.90;;;;;;5016420;28;20507;-72
2022/10/11 12:03:54;;;;;;;2.67;0.40;;;12.80;99.90;;;;;;5020068;28;20440;-72
2022/10/11 12:06:28;;;;;;;2.05;0.50;;;12.80;99.90;;;;;;4993873;28;20072;-72
2022/10/11 12:09:16;;;;;;;4.85;0.70;;;12.70;99.90;;;;;;5019186;28;20468;-72
2022/10/11 12:11:50;;;;;;;4.35;0.47;;;12.70;99.90;;;;;;5016046;28;20144;-72
2022/10/11 12:14:33;;;;;;;6.13;0.43;;;12.80;99.90;;;;;;5012032;28;20100;-72
2022/10/11 12:17:17;;;;;;;2.08;0.52;;;12.80;99.90;;;;;;5014356;28;20045;-72
2022/10/11 12:20:07;;;;;;;1.95;0.30;;;12.90;99.90;;;;;;5015808;28;20081;-72
2022/10/11 12:22:32;;;;;;;1.15;0.20;;;12.90;99.90;;;;;;5012947;28;20045;-72
2022/10/11 12:25:08;;;;;;;1.52;0.50;;;12.90;99.90;;;;;;5015539;28;20239;-72
2022/10/11 12:27:36;;;;;;;2.28;0.38;;;12.90;99.90;;;;;;5008958;28;20037;-73
2022/10/11 12:30:03;;;;;;;0.98;0.40;;;12.90;99.90;;;;;;5016158;28;20046;-73
2022/10/11 12:32:35;;;;;;;3.40;0.63;;;12.80;99.90;;;;;;5019978;28;20131;-72
2022/10/11 12:35:29;;;;;;;3.63;0.70;;;12.80;99.90;;;;;;5016843;28;20037;-72
2022/10/11 12:38:21;;;;;;;1.20;0.40;;;12.90;99.90;;;;;;5016568;28;20479;-72
2022/10/11 12:40:59;;;;;;;1.23;0.50;;;12.90;99.90;;;;;;5015256;28;20189;-72
2022/10/11 12:43:48;;;;;;;3.80;0.90;;;13.00;99.90;;;;;;5013530;28;20076;-72
2022/10/11 12:46:29;;;;;;;4.82;0.57;;;13.10;99.90;;;;;;4994231;28;20438;-72
2022/10/11 12:48:58;;;;;;;3.65;0.65;;;13.10;99.90;;;;;;5008350;28;20069;-72
2022/10/11 12:51:38;;;;;;;2.28;0.80;;;13.10;99.90;;;;;;5010770;28;20049;-72
2022/10/11 12:54:26;;;;;;;3.92;0.43;;;13.10;99.90;;;;;;4996386;28;20534;-72
2022/10/11 12:57:08;;;;;;;0.65;0.43;;;13.10;99.90;;;;;;5006011;28;20053;-72
2022/10/11 12:59:37;;;;;;;1.77;0.55;;;13.00;99.90;;;;;;5013679;28;20434;-72
2022/10/11 13:02:03;;;;;;;0.98;0.30;;;12.90;99.90;;;;;;5015145;28;20057;-72
2022/10/11 13:04:32;;;;;;;4.57;0.43;;;12.90;99.90;;;;;;5013839;28;20505;-72
2022/10/11 13:07:06;;;;;;;1.52;0.40;;;12.90;99.90;;;;;;5011385;28;20397;-72
2022/10/11 13:09:38;;;;;;;4.43;0.52;;;12.80;99.90;;;;;;5017733;28;20843;-72
2022/10/11 13:12:12;;;;;;;0.50;0.30;;;12.90;99.90;;;;;;5010864;28;20446;-72
2022/10/11 13:14:44;;;;;;;5.93;0.52;;;12.90;99.90;;;;;;5018257;28;20034;-72
2022/10/11 13:17:22;;;;;;;3.17;0.57;;;12.90;99.90;;;;;;5016317;28;20112;-72
2022/10/11 13:19:57;;;;;;;7.38;0.50;;;12.90;99.90;;;;;;5013122;28;20558;-72
2022/10/11 13:22:23;;;;;;;1.30;0.40;;;12.90;99.90;;;;;;5017738;28;20053;-72
2022/10/11 13:24:48;;;;;;;2.55;0.30;;;12.90;99.90;;;;;;5017092;28;20056;-72